メインページ
METAR-TAF:

METAR-TAF

空港 :

メキシコ・シティ国際空港

メキシコシティ, メキシコ

緯度: 19-26N, 経度: 099-06W, 海抜: 2238m

現時点の気象観測

当レポートは56分前の23:01(UTC)に作成
の風 10kt
気温 22°C
湿度 33%
気圧 1026 hPa
視程: 9.7km
高度2500ftの千切れ雲あり, 積乱雲.
高度8000ftの千切れ雲あり
高度20000ftの千切れ雲あり

METAR: MMMX 162301Z 17010KT 6SM BKN025CB BKN080 BKN200 22/05 A3030 NOSIG RMK 8/363 HZY PCPN S/SW

時間: 18:57 (23:57 UTC)

予報

当レポートは23分前の23:34(UTC)に作成
予報は17日の 00時(UTC)から 18日の 06時(UTC)まで有効
南東の風 10kt
視程: 10km
高度2500ftの雲は散在している, 積乱雲.
高度8000ftの千切れ雲あり
高度20000ftの千切れ雲あり
近辺で, 雨
17日の 00時(UTC)から 17日の 04時(UTC)まで一時的に
視程: 9.7km
高度2500ftの千切れ雲あり, 積乱雲.
雨, 近辺で, 激しい雷雨
17日の 0600時(UTC)から
東/北東の風 5kt
視程: 10km
高度2000ftの雲は散在している
高度8000ftの雲は散在している
17日の 1000時(UTC)から
東/北東の風 5kt
視程: 10km
高度2000ftの雲は散在している
17日の 11時(UTC)から 17日の 15時(UTC)まで一時的に
高度2000ftの千切れ雲あり
17日の 1600時(UTC)から
南東の風 10kt
視程: 8.0km
高度2000ftの雲は散在している
高度8000ftの雲は散在している
煙霧
17日の 21時(UTC)から 18日の 01時(UTC)まで一時的に
視程: 8.0km
高度2000ftの千切れ雲あり, 積乱雲.
激しい雷雨, 雨

TAF: MMMX 162334Z 1700/1806 14010KT P6SM VC RA SCT025CB BKN080 BKN200 TX25/1721Z TN16/1713Z TEMPO 1700/1704 6SM RA VC TS BKN025CB FM170600 07005KT P6SM SCT020 SCT080 FM171000 07005KT P6SM SCT020 TEMPO 1711/1715 BKN020 FM171600 13010KT 5SM HZ SCT020 SCT080 TEMPO 1721/1801 5SM TSRA BKN020CB

4,000以上の空港の気象観測と天気予報(METAR報とTAF報)

利用可能な観測所は地図上に黄色い丸と赤い丸で示す。

丸の上にカーソルを重ねると観測所名を参照できる。

次にクリックすると気象観測と天気予報を参照できる。

マップの切り替え:黒色「×」印の緑ボタンをクリックして拡大、「-」印の緑ボタンをクリックして縮小、緑色の三角印をクリックして隣りの地図に切り替え


METAR-TAF: